Time;durP1;ratioP1;P1;durP2;ratioP2;P2;SDS_P1;SDS_P2;PMS_P1;PMS_P2;Temp;Humidity;BMP_temperature;BMP_pressure;BME280_temperature;BME280_humidity;BME280_pressure;Samples;Min_cycle;Max_cycle;Signal;HPM_P1;HPM_P2
2021/08/12 00:00:36;;;;;;;6.58;4.90;;;;;;;11.93;69.69;100713.28;2030620;85;21650;-87
2021/08/12 00:03:37;;;;;;;7.00;4.60;;;;;;;11.91;69.88;100717.95;2015695;86;21069;-87
2021/08/12 00:06:38;;;;;;;6.67;4.72;;;;;;;11.81;70.16;100728.67;2024870;86;21143;-88
2021/08/12 00:09:40;;;;;;;11.28;5.70;;;;;;;11.78;69.74;100722.34;2031559;86;21089;-86
2021/08/12 00:12:41;;;;;;;9.13;5.15;;;;;;;11.78;69.74;100722.34;2030807;85;21126;-87
2021/08/12 00:15:42;;;;;;;6.95;5.22;;;;;;;11.75;70.09;100723.17;2033622;85;21065;-87
2021/08/12 00:18:43;;;;;;;8.53;5.33;;;;;;;11.74;70.07;100732.11;2022775;86;21627;-87
2021/08/12 00:21:44;;;;;;;7.05;4.72;;;;;;;11.70;70.28;100732.11;2025731;86;21111;-86
2021/08/12 00:24:45;;;;;;;7.83;4.65;;;;;;;11.66;70.33;100728.95;2028618;85;21104;-86
2021/08/12 00:27:46;;;;;;;13.58;6.05;;;;;;;11.64;70.29;100739.72;2026848;85;21085;-87
2021/08/12 00:30:47;;;;;;;6.72;5.70;;;;;;;11.59;71.00;100741.19;2036318;85;21100;-86
2021/08/12 00:33:49;;;;;;;7.30;4.50;;;;;;;11.47;71.24;100733.98;2034207;85;21088;-88
2021/08/12 00:36:50;;;;;;;5.90;5.22;;;;;;;11.33;71.17;100737.23;2034793;85;21622;-86
2021/08/12 00:39:51;;;;;;;10.20;5.22;;;;;;;11.33;71.39;100739.88;2022452;85;21141;-86
2021/08/12 00:42:53;;;;;;;7.08;4.87;;;;;;;11.31;71.15;100749.83;2023719;86;21028;-86
2021/08/12 00:45:54;;;;;;;7.10;4.58;;;;;;;11.29;71.05;100746.48;2028454;86;22459;-87
2021/08/12 00:48:55;;;;;;;7.72;5.12;;;;;;;11.26;70.92;100749.45;2029642;85;21099;-87
2021/08/12 00:52:00;;;;;;;12.53;5.85;;;;;;;11.19;70.91;100754.56;2035317;85;21097;-87
2021/08/12 00:55:03;;;;;;;8.70;5.30;;;;;;;11.17;71.81;100758.69;2014933;85;21030;-86
2021/08/12 00:58:05;;;;;;;8.23;5.85;;;;;;;10.92;72.02;100754.18;2033772;85;21451;-87
2021/08/12 01:01:07;;;;;;;10.43;5.78;;;;;;;10.82;72.52;100761.41;2029150;85;21101;-86
2021/08/12 01:04:08;;;;;;;8.40;5.37;;;;;;;10.85;72.54;100762.44;2021008;86;21035;-87
2021/08/12 01:07:32;;;;;;;8.15;4.78;;;;;;;10.91;72.67;100757.83;2037574;85;21063;-87
2021/08/12 01:10:48;;;;;;;8.25;5.10;;;;;;;10.96;72.46;100759.55;2028136;85;21222;-86
2021/08/12 01:14:24;;;;;;;7.30;5.33;;;;;;;10.96;72.36;100763.52;2021293;86;21078;-87
2021/08/12 01:17:38;;;;;;;12.98;5.78;;;;;;;10.94;72.28;100767.64;2028145;85;21019;-87
2021/08/12 01:20:57;;;;;;;7.28;4.87;;;;;;;10.88;72.49;100769.59;2025400;86;21130;-86
2021/08/12 01:24:03;;;;;;;13.22;5.17;;;;;;;10.90;72.47;100780.07;2043758;86;21106;-86
2021/08/12 01:27:09;;;;;;;6.70;5.10;;;;;;;10.93;72.61;100769.97;2034129;85;21108;-86
2021/08/12 01:30:16;;;;;;;12.70;5.50;;;;;;;10.96;72.65;100767.51;2028830;86;21118;-87
2021/08/12 01:34:12;;;;;;;10.43;5.70;;;;;;;10.99;72.61;100768.02;2027040;85;21077;-87
2021/08/12 01:37:15;;;;;;;7.95;4.97;;;;;;;10.97;72.54;100764.68;2027645;85;21038;-88
2021/08/12 01:40:21;;;;;;;8.45;5.50;;;;;;;11.00;72.59;100753.75;2030746;85;21654;-86
2021/08/12 01:43:24;;;;;;;5.05;4.45;;;;;;;10.91;72.70;100761.81;2023108;86;21092;-86
2021/08/12 01:46:28;;;;;;;6.95;5.45;;;;;;;10.89;72.69;100759.80;2018276;86;21137;-87
2021/08/12 01:49:31;;;;;;;8.43;5.70;;;;;;;10.92;72.86;100764.80;2030616;85;21089;-86
2021/08/12 01:52:36;;;;;;;10.43;5.30;;;;;;;10.90;72.60;100764.14;2026234;86;21376;-86
2021/08/12 01:55:39;;;;;;;9.60;4.92;;;;;;;10.89;72.73;100769.09;2021873;85;21678;-87
2021/08/12 01:58:41;;;;;;;7.15;5.35;;;;;;;10.86;72.61;100767.57;2023607;86;21085;-86
2021/08/12 02:01:46;;;;;;;6.87;5.15;;;;;;;10.83;72.47;100779.00;1994349;87;21175;-87
2021/08/12 02:04:49;;;;;;;8.13;5.60;;;;;;;10.76;72.58;100769.00;1992121;87;22251;-86
2021/08/12 02:07:52;;;;;;;6.92;4.58;;;;;;;10.67;72.89;100773.89;1966852;88;21150;-87
2021/08/12 02:10:54;;;;;;;9.48;4.65;;;;;;;10.55;72.70;100771.92;2028444;86;21626;-87
2021/08/12 02:13:57;;;;;;;5.80;4.30;;;;;;;10.52;72.70;100775.38;2036336;86;21070;-86
2021/08/12 02:16:58;;;;;;;6.55;4.40;;;;;;;10.50;72.85;100776.02;2017135;86;21070;-86
2021/08/12 02:20:09;;;;;;;6.33;4.62;;;;;;;10.49;73.03;100777.02;1997669;87;21125;-86
2021/08/12 02:23:16;;;;;;;;;;;;;;;10.50;72.98;100780.00;1959326;88;21171;-87
2021/08/12 02:26:21;;;;;;;5.35;4.50;;;;;;;10.50;72.86;100770.25;1990781;88;20490;-86
2021/08/12 02:29:24;;;;;;;6.83;4.28;;;;;;;10.48;72.80;100782.81;1988416;86;21614;-86
2021/08/12 02:32:30;;;;;;;5.05;4.28;;;;;;;10.44;72.74;100776.13;1991551;87;21190;-85
2021/08/12 02:35:33;;;;;;;11.38;4.72;;;;;;;10.41;72.61;100779.58;1983266;87;21172;-87
2021/08/12 02:38:38;;;;;;;7.85;4.72;;;;;;;10.38;72.66;100769.27;1963826;88;21118;-87
2021/08/12 02:41:41;;;;;;;5.75;4.55;;;;;;;10.34;72.67;100775.87;1978699;87;21168;-86
2021/08/12 02:44:44;;;;;;;7.33;4.45;;;;;;;10.33;72.75;100771.03;1984481;87;21881;-87
2021/08/12 02:47:48;;;;;;;7.25;4.47;;;;;;;10.32;72.84;100775.51;1983005;87;21155;-87
2021/08/12 02:50:50;;;;;;;5.62;4.20;;;;;;;10.26;72.76;100773.42;1983284;87;21076;-86
2021/08/12 02:53:53;;;;;;;5.55;3.77;;;;;;;10.23;72.73;100769.75;1924241;87;21142;-85
2021/08/12 02:56:58;;;;;;;5.37;3.90;;;;;;;10.22;72.70;100771.20;1954870;87;21065;-86
2021/08/12 03:00:02;;;;;;;4.50;3.65;;;;;;;10.19;72.99;100775.48;1987990;86;21034;-86
2021/08/12 03:03:07;;;;;;;4.22;3.62;;;;;;;10.17;72.86;100777.47;1969592;87;21681;-86
2021/08/12 03:06:16;;;;;;;8.83;4.20;;;;;;;10.16;72.79;100775.78;2001321;86;21079;-87
2021/08/12 03:09:17;;;;;;;5.72;4.50;;;;;;;10.11;72.55;100782.87;1989794;87;21558;-87
2021/08/12 03:12:21;;;;;;;9.58;4.50;;;;;;;10.04;72.59;100779.13;1963391;86;21067;-86
2021/08/12 03:15:23;;;;;;;6.00;4.10;;;;;;;10.04;72.76;100783.10;1985142;87;21032;-87
2021/08/12 03:18:24;;;;;;;10.13;4.67;;;;;;;10.00;72.75;100781.25;1989782;88;21586;-87
2021/08/12 03:21:25;;;;;;;6.53;4.70;;;;;;;9.98;73.05;100786.34;1988727;87;21086;-86
2021/08/12 03:24:29;;;;;;;7.95;4.40;;;;;;;9.90;73.05;100784.91;1992039;87;21105;-86
2021/08/12 03:27:30;;;;;;;7.87;4.40;;;;;;;9.92;73.06;100777.66;1994472;87;21149;-87
2021/08/12 03:30:32;;;;;;;7.97;4.47;;;;;;;9.91;72.91;100776.83;1986407;86;21109;-86
2021/08/12 03:33:34;;;;;;;5.62;4.72;;;;;;;9.90;72.88;100779.12;1992409;87;21120;-87
2021/08/12 03:36:35;;;;;;;6.85;4.28;;;;;;;9.87;72.89;100781.56;1993745;87;21118;-86
2021/08/12 03:39:36;;;;;;;7.20;4.95;;;;;;;9.88;72.81;100782.39;1984963;88;21078;-86
2021/08/12 03:42:39;;;;;;;5.65;4.60;;;;;;;9.88;72.81;100783.25;1990455;87;21102;-86
2021/08/12 03:45:40;;;;;;;10.75;4.87;;;;;;;9.92;72.83;100785.61;1975553;87;21198;-87
2021/08/12 03:48:41;;;;;;;5.67;4.20;;;;;;;9.90;72.78;100787.07;1983943;87;21050;-86
2021/08/12 03:51:43;;;;;;;6.03;4.53;;;;;;;9.90;72.77;100787.56;1986399;87;21169;-86
2021/08/12 03:54:44;;;;;;;8.15;4.12;;;;;;;9.91;72.86;100793.20;1984672;88;21117;-86
2021/08/12 03:57:45;;;;;;;5.25;3.98;;;;;;;9.92;73.04;100790.42;1983163;87;21078;-86
2021/08/12 04:00:47;;;;;;;5.10;4.60;;;;;;;9.94;73.07;100800.86;1994310;87;21023;-88
2021/08/12 04:03:49;;;;;;;8.70;4.12;;;;;;;9.98;73.13;100800.44;1977926;87;21619;-88
2021/08/12 04:06:51;;;;;;;7.12;4.58;;;;;;;10.12;73.17;100798.29;1991349;86;21074;-88
2021/08/12 04:09:52;;;;;;;5.65;4.62;;;;;;;10.34;73.39;100795.27;1985404;87;21071;-89
2021/08/12 04:12:54;;;;;;;8.10;4.10;;;;;;;10.67;73.60;100802.23;1992943;87;21113;-88
2021/08/12 04:15:55;;;;;;;6.17;4.42;;;;;;;11.00;73.56;100800.72;1970655;88;21135;-89
2021/08/12 04:18:57;;;;;;;5.28;4.20;;;;;;;11.37;73.41;100796.52;2027321;84;21078;-88
2021/08/12 04:21:58;;;;;;;5.25;4.37;;;;;;;11.75;73.21;100793.63;2023169;86;21524;-88
2021/08/12 04:25:00;;;;;;;5.83;3.85;;;;;;;12.13;72.71;100798.14;2027238;85;21122;-88
2021/08/12 04:28:01;;;;;;;6.60;4.65;;;;;;;12.53;72.50;100798.78;2010395;85;21052;-88
2021/08/12 04:31:03;;;;;;;5.83;4.30;;;;;;;12.86;71.93;100797.48;2028212;86;21134;-88
2021/08/12 04:34:05;;;;;;;5.80;4.15;;;;;;;13.22;71.42;100797.50;2029244;84;21115;-88
2021/08/12 04:37:06;;;;;;;6.67;4.05;;;;;;;13.50;70.97;100796.34;2021836;86;21066;-88
2021/08/12 04:40:13;;;;;;;6.42;4.55;;;;;;;13.82;70.68;100794.91;2021063;85;21101;-89
2021/08/12 04:43:20;;;;;;;5.92;4.25;;;;;;;14.24;70.44;100794.27;2031032;85;21618;-90
2021/08/12 04:46:22;;;;;;;5.55;4.12;;;;;;;14.74;70.09;100798.35;1979028;86;21051;-90
2021/08/12 04:49:25;;;;;;;6.28;4.12;;;;;;;15.18;69.49;100799.03;2026372;85;21142;-90
2021/08/12 04:52:27;;;;;;;6.47;4.45;;;;;;;15.69;69.19;100798.72;2020698;85;21081;-90
2021/08/12 04:55:28;;;;;;;5.92;4.45;;;;;;;16.25;68.67;100798.75;2025661;84;21034;-89
2021/08/12 04:58:29;;;;;;;6.28;4.45;;;;;;;16.79;67.93;100798.34;2028418;84;21560;-90
2021/08/12 05:01:30;;;;;;;10.48;5.50;;;;;;;16.99;66.98;100795.86;2026152;86;21066;-90
2021/08/12 05:04:32;;;;;;;7.20;4.47;;;;;;;17.16;66.48;100795.08;2019209;86;21133;-90
2021/08/12 05:07:33;;;;;;;6.60;4.60;;;;;;;17.55;66.48;100798.58;2021318;85;21157;-89
2021/08/12 05:10:34;;;;;;;12.88;5.08;;;;;;;17.98;66.14;100797.10;2015369;86;21695;-90
2021/08/12 05:13:35;;;;;;;8.03;4.78;;;;;;;18.51;65.41;100797.31;2020133;86;21358;-90
2021/08/12 05:16:36;;;;;;;6.87;5.15;;;;;;;18.70;64.48;100797.59;1987518;87;23202;-89
2021/08/12 05:19:38;;;;;;;7.35;5.17;;;;;;;18.89;64.24;100803.52;2013306;86;21093;-90
2021/08/12 05:22:40;;;;;;;7.47;5.65;;;;;;;19.19;63.82;100802.62;2006689;86;21197;-90
2021/08/12 05:25:44;;;;;;;7.67;5.72;;;;;;;19.62;63.41;100804.86;2000518;85;21070;-90
2021/08/12 05:28:44;;;;;;;13.48;6.20;;;;;;;19.99;63.21;100805.25;2016310;86;21098;-89
2021/08/12 05:31:47;;;;;;;8.93;5.92;;;;;;;20.62;62.88;100804.58;2011667;86;21106;-92
2021/08/12 05:34:49;;;;;;;10.82;6.20;;;;;;;21.20;61.55;100818.38;1993961;86;21095;-91
2021/08/12 05:37:50;;;;;;;11.38;7.50;;;;;;;21.56;61.47;100823.61;2015176;86;21035;-91
2021/08/12 05:40:51;;;;;;;9.00;8.05;;;;;;;22.04;60.64;100823.72;2017144;86;21146;-90
2021/08/12 05:43:53;;;;;;;12.18;8.03;;;;;;;22.49;60.09;100815.83;2013653;86;21094;-90
2021/08/12 05:46:54;;;;;;;10.30;8.10;;;;;;;22.65;58.86;100821.96;1989769;86;21837;-91
2021/08/12 05:49:56;;;;;;;12.53;8.70;;;;;;;22.85;58.73;100827.62;2011628;86;21031;-88
2021/08/12 05:52:58;;;;;;;13.32;8.13;;;;;;;23.35;58.02;100834.05;2030361;86;21936;-88
2021/08/12 05:56:01;;;;;;;11.65;7.53;;;;;;;23.58;57.45;100841.36;2019232;85;21377;-87
2021/08/12 05:59:02;;;;;;;12.05;7.95;;;;;;;23.61;56.08;100844.42;2033889;85;21566;-87
2021/08/12 06:02:04;;;;;;;15.75;7.90;;;;;;;23.84;55.89;100838.73;2035574;85;21014;-87
2021/08/12 06:05:07;;;;;;;13.13;8.33;;;;;;;24.11;55.27;100837.16;2026058;85;21098;-88
2021/08/12 06:08:15;;;;;;;10.95;7.78;;;;;;;24.29;54.51;100833.45;2020787;86;21146;-91
2021/08/12 06:11:14;;;;;;;11.90;7.03;;;;;;;24.30;53.91;100835.12;2024425;85;21093;-89
2021/08/12 06:14:15;;;;;;;9.13;6.70;;;;;;;24.37;53.91;100836.32;2000301;86;21123;-89
2021/08/12 06:17:16;;;;;;;8.90;7.12;;;;;;;24.42;53.46;100832.90;2020910;85;21597;-89
2021/08/12 06:20:18;;;;;;;14.38;6.47;;;;;;;24.57;53.19;100832.67;2024919;85;21559;-92
2021/08/12 06:23:20;;;;;;;10.03;5.87;;;;;;;24.77;52.46;100832.77;2020089;84;21066;-89
2021/08/12 06:26:21;;;;;;;11.45;6.47;;;;;;;24.98;52.23;100829.36;2024718;85;21098;-91
2021/08/12 06:29:23;;;;;;;7.35;5.78;;;;;;;25.08;51.79;100829.23;2011881;84;21119;-90
2021/08/12 06:32:27;;;;;;;7.90;5.95;;;;;;;25.07;51.86;100823.53;2018200;86;21556;-93
2021/08/12 06:35:32;;;;;;;8.95;5.85;;;;;;;25.27;51.58;100832.03;2020766;86;21053;-91
2021/08/12 06:38:32;;;;;;;7.62;5.78;;;;;;;25.58;51.09;100824.36;2026139;85;21046;-92
2021/08/12 06:41:34;;;;;;;6.75;4.95;;;;;;;25.76;50.76;100825.42;2004767;86;21101;-92
2021/08/12 06:44:37;;;;;;;5.80;4.97;;;;;;;26.04;50.53;100833.17;1972802;87;21130;-89
2021/08/12 06:47:38;;;;;;;6.65;5.20;;;;;;;26.29;49.73;100834.03;2012970;85;21148;-91
2021/08/12 06:50:40;;;;;;;6.80;4.75;;;;;;;26.46;49.27;100838.85;2023317;84;21050;-95
2021/08/12 06:53:41;;;;;;;8.75;4.40;;;;;;;26.54;48.88;100834.35;2027747;85;21084;-87
2021/08/12 06:56:43;;;;;;;6.83;4.83;;;;;;;26.89;48.48;100841.26;2028235;86;21597;-91
2021/08/12 06:59:44;;;;;;;5.20;4.70;;;;;;;26.96;47.95;100839.12;2012325;86;21058;-90
2021/08/12 07:02:46;;;;;;;8.58;5.08;;;;;;;27.08;47.82;100839.50;2031014;86;21110;-89
2021/08/12 07:05:47;;;;;;;8.45;4.70;;;;;;;27.24;47.33;100844.03;2026553;85;21094;-91
2021/08/12 07:08:54;;;;;;;9.15;4.37;;;;;;;27.46;47.22;100838.48;2031548;85;21100;-91
2021/08/12 07:11:57;;;;;;;5.05;4.25;;;;;;;27.61;46.58;100845.94;2031322;84;21087;-91
2021/08/12 07:14:58;;;;;;;7.20;4.42;;;;;;;27.80;46.71;100845.81;2024243;85;21123;-92
2021/08/12 07:18:00;;;;;;;10.72;4.10;;;;;;;28.07;46.10;100848.42;2030061;85;21058;-89
2021/08/12 07:21:01;;;;;;;6.83;3.92;;;;;;;28.23;45.42;100841.66;2024690;85;21093;-88
2021/08/12 07:24:04;;;;;;;4.83;3.70;;;;;;;28.22;44.75;100844.12;2020183;86;21809;-92
2021/08/12 07:27:05;;;;;;;7.15;3.33;;;;;;;28.34;43.73;100840.05;2030318;85;21627;-89
2021/08/12 07:30:08;;;;;;;5.78;4.10;;;;;;;28.22;43.54;100846.84;2022871;86;21114;-91
2021/08/12 07:33:10;;;;;;;4.50;3.52;;;;;;;28.11;43.40;100845.43;2025021;84;21102;-90
2021/08/12 07:36:12;;;;;;;5.60;4.20;;;;;;;28.14;43.12;100844.08;2028627;85;21856;-88
2021/08/12 07:39:17;;;;;;;5.50;3.83;;;;;;;28.31;43.11;100843.87;2019801;85;21075;-88
2021/08/12 07:42:19;;;;;;;5.17;3.75;;;;;;;28.41;43.32;100844.44;2015291;85;21057;-88
2021/08/12 07:45:21;;;;;;;5.20;3.50;;;;;;;28.66;42.85;100845.91;2015253;86;21170;-88
2021/08/12 07:48:23;;;;;;;6.08;3.58;;;;;;;28.81;42.54;100851.95;2033443;84;21070;-88
2021/08/12 07:51:24;;;;;;;5.42;3.52;;;;;;;28.77;42.45;100856.30;2026302;85;21063;-88
2021/08/12 07:54:25;;;;;;;9.78;3.67;;;;;;;29.05;41.64;100860.47;2026697;85;21056;-88
2021/08/12 08:01:38;;;;;;;3.52;3.00;;;;;;;29.34;40.58;100851.20;2024667;86;21123;-88
2021/08/12 08:04:39;;;;;;;3.83;3.42;;;;;;;29.43;39.86;100856.38;2018199;85;21530;-88
2021/08/12 08:07:40;;;;;;;5.42;3.00;;;;;;;29.69;39.26;100856.37;2022463;85;21122;-88
2021/08/12 08:10:41;;;;;;;3.85;3.05;;;;;;;29.78;38.59;100854.70;2019247;85;21103;-88
2021/08/12 08:13:42;;;;;;;4.72;3.12;;;;;;;29.80;38.37;100857.17;2024718;85;21109;-88
2021/08/12 08:16:43;;;;;;;4.28;2.80;;;;;;;29.85;38.12;100853.87;2020850;85;21054;-85
2021/08/12 08:19:45;;;;;;;5.33;3.25;;;;;;;29.93;37.75;100857.41;2032048;85;21117;-86
2021/08/12 08:22:47;;;;;;;3.83;3.25;;;;;;;29.88;37.23;100856.61;2023726;86;21089;-86
2021/08/12 08:25:48;;;;;;;5.83;2.72;;;;;;;29.96;37.03;100860.14;2022498;85;21194;-87
2021/08/12 08:28:49;;;;;;;3.62;2.75;;;;;;;29.81;36.77;100856.88;2031009;86;21055;-86
2021/08/12 08:31:50;;;;;;;6.00;2.98;;;;;;;29.92;36.50;100855.75;2023062;86;21177;-85
2021/08/12 08:34:53;;;;;;;4.80;2.58;;;;;;;30.15;36.42;100861.14;2024216;85;21215;-86
2021/08/12 08:37:58;;;;;;;7.55;3.08;;;;;;;30.34;35.92;100861.92;2016910;86;21093;-86
2021/08/12 08:41:02;;;;;;;5.33;2.75;;;;;;;30.12;35.73;100858.97;2037407;85;21572;-85
2021/08/12 08:44:07;;;;;;;3.02;2.72;;;;;;;30.14;35.73;100869.09;2027628;85;21060;-85
2021/08/12 08:47:10;;;;;;;4.20;2.77;;;;;;;30.21;35.33;100876.17;2021224;86;21575;-85
2021/08/12 08:50:16;;;;;;;4.12;2.90;;;;;;;30.36;35.79;100870.69;2038147;85;21134;-85
2021/08/12 08:53:18;;;;;;;2.98;2.77;;;;;;;30.36;35.79;100870.69;2030850;86;21453;-85
2021/08/12 08:56:20;;;;;;;4.92;3.12;;;;;;;30.36;35.37;100864.66;2034384;86;21047;-85
2021/08/12 08:59:23;;;;;;;5.15;2.85;;;;;;;30.22;34.83;100875.94;2037814;85;21149;-85
2021/08/12 09:02:25;;;;;;;6.28;2.80;;;;;;;30.12;34.96;100864.98;2016986;86;21151;-85
2021/08/12 09:05:26;;;;;;;6.53;3.40;;;;;;;30.18;34.98;100851.55;2035028;86;21531;-86
2021/08/12 09:08:30;;;;;;;2.92;2.60;;;;;;;30.48;34.46;100867.05;2019238;86;21617;-85
2021/08/12 09:11:32;;;;;;;9.68;3.67;;;;;;;30.49;34.10;100863.77;2034046;85;21038;-85
2021/08/12 09:14:42;;;;;;;4.87;3.33;;;;;;;30.44;34.42;100863.26;2022771;86;21033;-85
2021/08/12 09:17:44;;;;;;;5.03;2.80;;;;;;;30.12;34.35;100840.37;2035873;84;21538;-86
2021/08/12 09:20:48;;;;;;;9.90;3.30;;;;;;;30.29;33.35;100841.42;2027905;85;21098;-85
2021/08/12 09:23:57;;;;;;;7.60;2.60;;;;;;;30.29;33.35;100841.42;2035857;85;21094;-86
2021/08/12 09:27:01;;;;;;;5.33;2.87;;;;;;;30.25;34.38;100854.85;2022657;85;21790;-87
2021/08/12 09:30:12;;;;;;;5.80;2.72;;;;;;;30.25;34.03;100852.67;2020225;86;21067;-86
2021/08/12 09:33:17;;;;;;;5.78;3.17;;;;;;;29.98;33.24;100854.37;2037870;85;21691;-84
2021/08/12 09:36:33;;;;;;;3.98;2.87;;;;;;;29.15;33.33;100856.94;2023638;85;21529;-85
2021/08/12 09:39:36;;;;;;;27.82;3.77;;;;;;;28.59;34.30;100856.27;2033339;85;21026;-86
2021/08/12 09:43:00;;;;;;;5.87;3.05;;;;;;;28.28;35.27;100860.78;2039512;86;21089;-87
2021/08/12 09:46:05;;;;;;;4.28;2.40;;;;;;;28.13;34.71;100861.00;2029127;86;21565;-86
2021/08/12 09:49:07;;;;;;;7.35;2.77;;;;;;;27.66;35.17;100863.14;2027762;86;21087;-85
2021/08/12 09:52:34;;;;;;;6.97;2.92;;;;;;;27.21;36.19;100856.81;2026446;85;21040;-86
2021/08/12 09:55:40;;;;;;;8.45;3.00;;;;;;;26.98;36.40;100860.13;2027961;86;21619;-86
2021/08/12 09:58:41;;;;;;;3.60;2.90;;;;;;;27.27;36.43;100857.95;2026046;85;21070;-85
2021/08/12 10:01:43;;;;;;;3.42;2.92;;;;;;;27.53;36.27;100862.23;2017341;85;21044;-85
2021/08/12 10:04:45;;;;;;;4.58;2.98;;;;;;;27.72;35.43;100857.19;2030367;85;21146;-84
2021/08/12 10:07:49;;;;;;;4.00;2.77;;;;;;;27.83;35.46;100864.92;2031038;86;21098;-85
2021/08/12 10:10:52;;;;;;;4.45;3.05;;;;;;;27.22;35.83;100857.90;2043916;86;21102;-86
2021/08/12 10:13:57;;;;;;;5.00;2.50;;;;;;;27.44;35.83;100854.27;2034408;85;21026;-85
2021/08/12 10:16:59;;;;;;;2.87;2.60;;;;;;;27.81;36.15;100847.45;2040648;85;21051;-86
2021/08/12 10:20:01;;;;;;;3.02;2.50;;;;;;;28.27;35.79;100843.59;2034986;85;22240;-85
2021/08/12 10:23:05;;;;;;;3.37;2.95;;;;;;;28.51;35.22;100847.23;2036697;85;21055;-85
2021/08/12 10:26:08;;;;;;;4.03;2.47;;;;;;;28.69;35.41;100843.18;2034537;86;21102;-86
2021/08/12 10:29:22;;;;;;;4.83;2.40;;;;;;;29.14;34.82;100837.52;2033486;86;21059;-86
2021/08/12 10:32:21;;;;;;;2.95;2.50;;;;;;;29.24;34.88;100840.27;2025332;85;21513;-86
2021/08/12 10:35:26;;;;;;;3.80;2.30;;;;;;;29.43;34.30;100840.53;2027083;84;21099;-85
2021/08/12 10:38:28;;;;;;;3.62;2.47;;;;;;;29.26;33.24;100842.19;2039172;85;21061;-85
2021/08/12 10:41:31;;;;;;;2.33;2.12;;;;;;;28.57;32.01;100839.34;2040331;85;21057;-86
2021/08/12 10:44:34;;;;;;;2.77;2.58;;;;;;;27.96;33.27;100841.28;2034200;85;21100;-85
2021/08/12 10:47:51;;;;;;;3.10;2.77;;;;;;;27.96;33.63;100833.09;2025579;85;21130;-86
2021/08/12 10:51:12;;;;;;;5.12;2.45;;;;;;;27.97;33.87;100838.00;2036228;86;21055;-85
2021/08/12 10:54:18;;;;;;;5.20;2.37;;;;;;;28.22;34.23;100834.57;2029755;85;21063;-84
2021/08/12 10:57:23;;;;;;;3.87;2.67;;;;;;;28.43;34.47;100829.47;2038306;85;21053;-84
2021/08/12 11:00:48;;;;;;;3.77;2.08;;;;;;;28.85;34.25;100829.02;2029857;85;21772;-85
2021/08/12 11:03:53;;;;;;;2.92;2.33;;;;;;;29.10;33.75;100826.87;2016783;85;21090;-86
2021/08/12 11:06:52;;;;;;;2.20;2.00;;;;;;;29.25;32.57;100816.75;2034799;85;21094;-85
2021/08/12 11:09:57;;;;;;;3.95;2.90;;;;;;;29.25;33.25;100820.03;2025889;85;21073;-86
2021/08/12 11:13:00;;;;;;;3.83;2.47;;;;;;;29.50;32.88;100824.09;2020444;85;21574;-85
2021/08/12 11:16:03;;;;;;;4.47;2.70;;;;;;;29.63;33.55;100820.56;2031235;85;21125;-85
2021/08/12 11:19:05;;;;;;;7.42;2.52;;;;;;;29.87;32.93;100821.57;2027990;86;22602;-85
2021/08/12 11:22:26;;;;;;;3.30;2.50;;;;;;;29.98;33.02;100831.13;1990059;86;21600;-85
2021/08/12 11:25:58;;;;;;;3.10;2.25;;;;;;;29.94;33.01;100828.13;1991538;87;21087;-85
2021/08/12 11:29:00;;;;;;;3.33;2.50;;;;;;;30.02;32.01;100832.22;2038665;85;21535;-85
2021/08/12 11:32:11;;;;;;;2.92;2.20;;;;;;;29.68;31.95;100823.30;2031910;84;21055;-85
2021/08/12 11:35:12;;;;;;;5.20;2.00;;;;;;;28.99;31.00;100824.66;2040433;85;21390;-85
2021/08/12 11:38:14;;;;;;;3.60;2.33;;;;;;;28.36;31.67;100817.97;2029152;85;21082;-86
2021/08/12 11:41:17;;;;;;;2.98;2.33;;;;;;;27.97;32.40;100826.55;2019142;86;21094;-85
2021/08/12 11:44:19;;;;;;;4.47;2.35;;;;;;;27.84;32.81;100825.66;2024505;86;21091;-85
2021/08/12 11:50:32;;;;;;;2.83;2.47;;;;;;;27.99;33.37;100819.45;2306064;74;22254;-78
2021/08/12 11:53:51;;;;;;;3.95;2.60;;;;;;;28.04;33.18;100820.84;2293719;75;21039;-77
2021/08/12 11:56:53;;;;;;;2.95;2.67;;;;;;;28.25;33.20;100813.02;2296478;75;21008;-76
2021/08/12 11:59:54;;;;;;;4.20;2.52;;;;;;;28.35;33.67;100817.67;2294386;75;21475;-76
2021/08/12 12:03:04;;;;;;;3.58;2.40;;;;;;;28.39;33.62;100816.88;2293520;75;21551;-75
2021/08/12 12:06:05;;;;;;;2.92;2.25;;;;;;;28.39;33.36;100822.89;2301531;75;20998;-76
2021/08/12 12:09:29;;;;;;;4.62;2.65;;;;;;;28.47;32.92;100818.86;2300413;76;21021;-76
2021/08/12 12:12:30;;;;;;;2.77;2.40;;;;;;;28.64;32.98;100818.62;2297934;75;20957;-77
2021/08/12 12:15:34;;;;;;;3.00;2.37;;;;;;;28.81;33.45;100817.83;2296189;75;21630;-76
2021/08/12 12:18:39;;;;;;;32.67;3.95;;;;;;;28.75;33.16;100820.28;2298041;75;20981;-76
2021/08/12 12:21:42;;;;;;;3.22;2.30;;;;;;;28.67;33.05;100819.45;2293197;75;20990;-77
2021/08/12 12:24:48;;;;;;;5.87;2.40;;;;;;;28.82;32.76;100809.89;2305611;76;21017;-77
2021/08/12 12:27:49;;;;;;;4.37;2.45;;;;;;;28.86;32.76;100809.61;2295463;75;21037;-77
2021/08/12 12:30:50;;;;;;;4.30;2.33;;;;;;;28.72;32.50;100811.23;2268400;75;21010;-77
2021/08/12 12:34:02;;;;;;;3.17;2.35;;;;;;;28.65;32.90;100806.05;2298075;75;20994;-78
2021/08/12 12:37:04;;;;;;;2.60;2.40;;;;;;;28.62;32.58;100806.59;2290242;75;20988;-77
2021/08/12 12:40:12;;;;;;;6.62;2.20;;;;;;;28.74;32.41;100799.51;2300241;76;21584;-77
2021/08/12 12:43:13;;;;;;;4.35;2.50;;;;;;;28.53;32.31;100800.03;2296454;75;21068;-79
2021/08/12 12:46:30;;;;;;;4.45;2.35;;;;;;;28.54;32.24;100801.11;2295062;75;21025;-77
2021/08/12 12:49:33;;;;;;;3.67;2.10;;;;;;;28.66;32.47;100797.31;2302473;76;21462;-78
2021/08/12 12:52:35;;;;;;;3.87;2.55;;;;;;;28.62;33.00;100794.86;2301871;75;21372;-79
2021/08/12 12:55:42;;;;;;;3.37;2.42;;;;;;;28.57;32.90;100792.38;2304997;75;20954;-76
2021/08/12 12:58:43;;;;;;;3.33;1.95;;;;;;;28.53;32.81;100796.75;2305455;75;20942;-76
2021/08/12 13:01:56;;;;;;;3.98;2.47;;;;;;;28.45;33.09;100793.73;2304844;75;21010;-74
2021/08/12 13:05:00;;;;;;;5.75;2.40;;;;;;;28.47;33.26;100795.11;2305474;76;21115;-75
2021/08/12 13:08:12;;;;;;;3.25;2.42;;;;;;;28.47;32.10;100794.30;2303692;75;21036;-75
2021/08/12 13:11:21;;;;;;;7.53;2.62;;;;;;;28.38;30.97;100789.84;2307433;75;21002;-75
2021/08/12 13:14:32;;;;;;;3.33;2.47;;;;;;;27.85;31.95;100798.14;2304151;75;21036;-76
2021/08/12 13:17:36;;;;;;;3.35;2.42;;;;;;;27.56;32.20;100790.84;2304302;75;20975;-77
2021/08/12 13:20:45;;;;;;;3.33;2.60;;;;;;;27.67;33.00;100784.36;2306110;75;21504;-76
2021/08/12 13:23:55;;;;;;;18.60;3.15;;;;;;;27.92;33.72;100787.79;2211526;78;21020;-77
2021/08/12 13:27:00;;;;;;;3.65;2.47;;;;;;;28.13;33.21;100781.89;2217723;78;21029;-77
2021/08/12 13:30:06;;;;;;;3.55;2.45;;;;;;;28.27;32.54;100775.91;2218288;78;21500;-76
2021/08/12 13:33:26;;;;;;;3.70;2.30;;;;;;;27.99;32.37;100777.17;2233491;78;21034;-77
2021/08/12 13:36:27;;;;;;;3.05;2.47;;;;;;;27.92;33.22;100778.80;2231633;79;21052;-77
2021/08/12 13:39:28;;;;;;;4.10;2.35;;;;;;;27.71;33.11;100778.67;2229275;78;21050;-78
2021/08/12 13:42:30;;;;;;;4.03;2.27;;;;;;;27.38;32.78;100781.75;2234473;78;21607;-78
2021/08/12 13:45:31;;;;;;;5.25;2.33;;;;;;;27.12;33.33;100780.18;2232817;78;21079;-77
2021/08/12 13:48:33;;;;;;;5.05;2.22;;;;;;;27.16;33.35;100780.50;2221890;79;21022;-77
2021/08/12 13:51:34;;;;;;;5.22;2.40;;;;;;;27.26;33.24;100774.59;2208893;80;21776;-77
2021/08/12 13:54:36;;;;;;;2.50;2.30;;;;;;;27.47;33.73;100768.72;2207058;79;21002;-77
2021/08/12 14:07:47;;;;;;;7.87;2.52;;;;;;;27.45;33.17;100767.34;2224216;78;21654;-78
2021/08/12 14:10:48;;;;;;;4.83;2.45;;;;;;;27.55;32.77;100766.05;2229072;78;20959;-79
2021/08/12 14:13:49;;;;;;;10.93;2.85;;;;;;;27.25;32.84;100765.30;2194841;81;20982;-78
2021/08/12 14:16:51;;;;;;;11.05;2.65;;;;;;;27.02;33.06;100757.75;2197660;80;20955;-77
2021/08/12 14:19:52;;;;;;;5.10;2.60;;;;;;;27.09;34.06;100760.27;2216459;79;21089;-80
2021/08/12 14:22:53;;;;;;;2.92;2.35;;;;;;;27.12;33.57;100758.39;2210965;79;21060;-79
2021/08/12 14:25:56;;;;;;;5.00;2.37;;;;;;;27.15;33.80;100765.22;2209228;79;21555;-79
2021/08/12 14:28:58;;;;;;;3.67;2.25;;;;;;;27.08;33.35;100770.88;2208349;79;21608;-78
2021/08/12 14:32:02;;;;;;;4.95;2.75;;;;;;;26.93;33.65;100770.22;2209476;79;21021;-78